createdAt,value
2018-06-02T00:00:54.528Z,42.50
2018-06-02T00:01:54.590Z,44.50
2018-06-02T00:02:54.632Z,46.80
2018-06-02T00:03:54.581Z,45.70
2018-06-02T00:04:54.610Z,47.90
2018-06-02T00:05:54.611Z,45.00
2018-06-02T00:06:54.626Z,45.40
2018-06-02T00:07:55.797Z,45.70
2018-06-02T00:08:54.801Z,45.30
2018-06-02T00:09:54.657Z,43.80
2018-06-02T00:10:54.687Z,42.50
2018-06-02T00:11:54.715Z,41.70
2018-06-02T00:12:54.705Z,42.80
2018-06-02T00:13:54.750Z,43.10
2018-06-02T00:14:54.744Z,43.80
2018-06-02T00:15:54.762Z,45.80
2018-06-02T00:16:54.770Z,44.60
2018-06-02T00:17:54.777Z,43.90
2018-06-02T00:18:54.862Z,49.40
2018-06-02T00:19:54.813Z,51.80
2018-06-02T00:20:54.829Z,50.90
2018-06-02T00:21:54.838Z,46.40
2018-06-02T00:22:54.863Z,44.10
2018-06-02T00:23:54.906Z,43.00
2018-06-02T00:24:54.895Z,46.50
2018-06-02T00:25:54.908Z,42.60
2018-06-02T00:26:54.924Z,41.30
2018-06-02T00:27:54.929Z,42.10
2018-06-02T00:28:54.964Z,43.00
2018-06-02T00:29:54.963Z,40.80
2018-06-02T00:30:54.979Z,43.50
2018-06-02T00:31:55.008Z,40.00
2018-06-02T00:32:55.050Z,40.00
2018-06-02T00:33:55.031Z,40.90
2018-06-02T00:34:55.032Z,39.80
2018-06-02T00:35:55.055Z,40.00
2018-06-02T00:36:55.100Z,38.20
2018-06-02T00:37:55.092Z,39.30
2018-06-02T00:38:55.096Z,42.00
2018-06-02T00:39:55.134Z,42.10
2018-06-02T00:40:55.118Z,42.60
2018-06-02T00:41:55.166Z,41.80
2018-06-02T00:42:55.155Z,38.70
2018-06-02T00:43:55.185Z,38.60
2018-06-02T00:44:55.181Z,38.90
2018-06-02T00:45:55.195Z,39.40
2018-06-02T00:46:55.214Z,40.40
2018-06-02T00:47:55.248Z,37.50
2018-06-02T00:48:55.301Z,39.30
2018-06-02T00:49:55.240Z,38.50
2018-06-02T00:50:55.310Z,40.80
2018-06-02T00:51:55.289Z,54.20
2018-06-02T00:52:55.328Z,55.60
2018-06-02T00:53:55.307Z,49.80
2018-06-02T00:54:55.322Z,50.00
2018-06-02T00:55:55.394Z,42.40
2018-06-02T00:56:55.352Z,38.90
2018-06-02T00:57:55.358Z,38.70
2018-06-02T00:58:55.437Z,39.60
2018-06-02T00:59:55.410Z,45.00
2018-06-02T01:00:55.413Z,39.80
2018-06-02T01:01:55.440Z,44.40
2018-06-02T01:02:55.445Z,43.90
2018-06-02T01:03:55.493Z,44.40
2018-06-02T01:04:55.497Z,40.60
2018-06-02T01:05:55.526Z,40.60
2018-06-02T01:06:55.512Z,40.30
2018-06-02T01:07:55.514Z,43.00
2018-06-02T01:08:55.559Z,41.20
2018-06-02T01:09:55.539Z,39.30
2018-06-02T01:10:55.600Z,39.60
2018-06-02T01:11:55.593Z,39.60
2018-06-02T01:12:55.586Z,40.10
2018-06-02T01:13:56.229Z,39.80
2018-06-02T01:14:55.663Z,40.10
2018-06-02T01:15:55.621Z,42.60
2018-06-02T01:16:55.698Z,42.50
2018-06-02T01:17:55.682Z,40.90
2018-06-02T01:18:55.695Z,40.40
2018-06-02T01:19:55.719Z,42.70
2018-06-02T01:20:55.782Z,42.10
2018-06-02T01:21:55.743Z,39.70
2018-06-02T01:22:55.742Z,41.00
2018-06-02T01:23:55.741Z,46.00
2018-06-02T01:24:55.766Z,50.70
2018-06-02T01:25:55.820Z,54.40
2018-06-02T01:26:55.828Z,53.90
2018-06-02T01:27:55.862Z,52.60
2018-06-02T01:28:55.810Z,55.60
2018-06-02T01:29:55.849Z,75.10
2018-06-02T01:30:56.087Z,72.70
2018-06-02T01:31:55.861Z,65.20
2018-06-02T01:32:55.906Z,43.50
2018-06-02T01:33:55.923Z,41.10
2018-06-02T01:34:55.899Z,39.10
2018-06-02T01:35:55.924Z,38.50
2018-06-02T01:36:56.091Z,39.30
2018-06-02T01:37:55.955Z,41.30
2018-06-02T01:38:55.970Z,42.00
2018-06-02T01:39:56.171Z,40.90
2018-06-02T01:40:56.016Z,44.30
2018-06-02T01:41:56.042Z,44.20
2018-06-02T01:42:56.057Z,40.30
2018-06-02T01:43:56.035Z,40.20
2018-06-02T01:44:56.073Z,49.10
2018-06-02T01:45:56.106Z,46.10
2018-06-02T01:46:56.088Z,44.40
2018-06-02T01:47:56.095Z,47.10
2018-06-02T01:48:56.099Z,47.00
2018-06-02T01:49:56.148Z,41.50
2018-06-02T01:50:56.189Z,40.30
2018-06-02T01:51:56.411Z,40.50
2018-06-02T01:52:56.194Z,41.70
2018-06-02T01:53:56.209Z,39.80
2018-06-02T01:54:56.244Z,39.50
2018-06-02T01:55:56.269Z,38.80
2018-06-02T01:56:56.233Z,39.30
2018-06-02T01:57:56.248Z,52.40
2018-06-02T01:58:56.246Z,49.80
2018-06-02T01:59:56.316Z,48.20
2018-06-02T02:00:56.324Z,53.40
2018-06-02T02:01:56.296Z,72.80
2018-06-02T02:02:56.378Z,52.80
2018-06-02T02:03:57.026Z,47.50
2018-06-02T02:04:56.386Z,49.60
2018-06-02T02:05:56.360Z,48.50
2018-06-02T02:06:56.465Z,45.00
2018-06-02T02:07:56.385Z,40.70
2018-06-02T02:08:56.411Z,40.50
2018-06-02T02:09:56.419Z,40.20
2018-06-02T02:10:56.434Z,38.80
2018-06-02T02:11:56.500Z,47.30
2018-06-02T02:12:56.454Z,43.00
2018-06-02T02:13:56.472Z,43.80
2018-06-02T02:14:56.652Z,42.50
2018-06-02T02:15:56.508Z,49.10
2018-06-02T02:16:56.577Z,57.90
2018-06-02T02:17:56.541Z,53.20
2018-06-02T02:18:56.553Z,51.70
2018-06-02T02:19:56.554Z,49.70
2018-06-02T02:20:56.569Z,47.50
2018-06-02T02:21:56.629Z,51.30
2018-06-02T02:22:56.674Z,47.30
2018-06-02T02:24:03.688Z,46.30
2018-06-02T02:25:03.738Z,48.80
2018-06-02T02:26:03.713Z,46.20
2018-06-02T02:27:03.700Z,44.50
2018-06-02T02:28:03.707Z,42.60
2018-06-02T02:29:03.735Z,42.70
2018-06-02T02:30:03.771Z,43.20
2018-06-02T02:31:03.748Z,43.80
2018-06-02T02:32:03.797Z,43.20
2018-06-02T02:33:03.798Z,43.60
2018-06-02T02:34:03.773Z,42.80
2018-06-02T02:35:03.858Z,43.50
2018-06-02T02:36:03.946Z,42.10
2018-06-02T02:36:56.808Z,45.70
2018-06-02T02:37:56.932Z,57.50
2018-06-02T02:38:57.459Z,60.60
2018-06-02T02:39:56.857Z,82.10
2018-06-02T02:40:56.855Z,54.80
2018-06-02T02:41:56.911Z,50.50
2018-06-02T02:42:56.881Z,50.00
2018-06-02T02:43:56.920Z,46.90
2018-06-02T02:44:56.945Z,45.90
2018-06-02T02:45:56.935Z,44.80
2018-06-02T02:46:56.997Z,46.00
2018-06-02T02:47:56.972Z,43.50
2018-06-02T02:48:56.970Z,45.20
2018-06-02T02:49:56.997Z,50.50
2018-06-02T02:50:57.853Z,51.40
2018-06-02T02:51:57.040Z,55.10
2018-06-02T02:52:57.043Z,56.30
2018-06-02T02:53:57.072Z,51.50
2018-06-02T02:54:57.057Z,44.20
2018-06-02T02:55:57.063Z,44.80
2018-06-02T02:56:57.098Z,44.30
2018-06-02T02:57:57.134Z,44.30
2018-06-02T02:58:57.119Z,44.60
2018-06-02T02:59:57.120Z,45.20
2018-06-02T03:00:57.144Z,44.30
2018-06-02T03:01:57.163Z,44.30
2018-06-02T03:02:57.228Z,42.30
2018-06-02T03:03:57.198Z,42.90
2018-06-02T03:04:57.230Z,43.10
2018-06-02T03:05:57.271Z,42.50
2018-06-02T03:06:57.298Z,43.90
2018-06-02T03:07:57.253Z,43.90
2018-06-02T03:08:57.250Z,44.70
2018-06-02T03:09:57.302Z,42.80
2018-06-02T03:10:57.280Z,42.80
2018-06-02T03:11:57.334Z,43.50
2018-06-02T03:12:57.344Z,44.10
2018-06-02T03:13:57.449Z,44.70
2018-06-02T03:14:57.354Z,42.80
2018-06-02T03:15:57.360Z,43.90
2018-06-02T03:16:57.371Z,44.50
2018-06-02T03:17:57.433Z,44.00
2018-06-02T03:18:57.414Z,41.70
2018-06-02T03:19:57.440Z,42.90
2018-06-02T03:20:57.428Z,43.20
2018-06-02T03:21:57.449Z,43.20
2018-06-02T03:22:57.504Z,43.90
2018-06-02T03:23:57.523Z,43.60
2018-06-02T03:24:57.504Z,42.00
2018-06-02T03:25:57.515Z,43.90
2018-06-02T03:26:57.638Z,43.10
2018-06-02T03:27:57.547Z,42.90
2018-06-02T03:28:57.595Z,43.60
2018-06-02T03:29:57.602Z,44.90
2018-06-02T03:30:57.587Z,44.40
2018-06-02T03:31:57.607Z,42.10
2018-06-02T03:32:57.626Z,43.60
2018-06-02T03:33:57.626Z,44.60
2018-06-02T03:34:57.686Z,43.50
2018-06-02T03:35:57.648Z,42.90
2018-06-02T03:36:57.656Z,42.50
2018-06-02T03:37:57.703Z,43.40
2018-06-02T03:38:57.700Z,42.90
2018-06-02T03:39:57.773Z,44.10
2018-06-02T03:40:57.789Z,44.50
2018-06-02T03:41:57.746Z,43.80
2018-06-02T03:42:57.751Z,45.00
2018-06-02T03:43:57.780Z,44.00
2018-06-02T03:44:57.792Z,43.10
2018-06-02T03:45:57.861Z,44.30
2018-06-02T03:46:57.821Z,43.70
2018-06-02T03:47:57.835Z,43.40
2018-06-02T03:48:57.833Z,42.90
2018-06-02T03:49:57.898Z,43.70
2018-06-02T03:50:57.912Z,43.50
2018-06-02T03:51:57.915Z,42.70
2018-06-02T03:52:57.909Z,42.60
2018-06-02T03:53:57.923Z,42.80
2018-06-02T03:54:57.926Z,43.10
2018-06-02T03:55:57.981Z,43.00
2018-06-02T03:56:57.949Z,41.40
2018-06-02T03:57:57.994Z,43.00
2018-06-02T03:58:58.033Z,42.40
2018-06-02T03:59:58.014Z,41.90
2018-06-02T04:00:58.019Z,42.30
2018-06-02T04:01:58.033Z,41.30
2018-06-02T04:02:58.084Z,43.40
2018-06-02T04:03:58.092Z,41.30
2018-06-02T04:04:58.971Z,41.30
2018-06-02T04:05:58.977Z,40.10
2018-06-02T04:06:58.105Z,41.40
2018-06-02T04:07:58.128Z,40.20
2018-06-02T04:08:58.177Z,40.90
2018-06-02T04:09:58.156Z,41.20
2018-06-02T04:10:58.196Z,40.60
2018-06-02T04:11:58.189Z,41.40
2018-06-02T04:12:58.199Z,40.40
2018-06-02T04:13:58.203Z,39.90
2018-06-02T04:14:58.221Z,41.90
2018-06-02T04:15:58.270Z,42.00
2018-06-02T04:16:58.264Z,41.00
2018-06-02T04:17:58.259Z,40.90
2018-06-02T04:18:58.317Z,40.90
2018-06-02T04:19:58.327Z,39.80
2018-06-02T04:20:58.320Z,40.40
2018-06-02T04:21:58.321Z,40.10
2018-06-02T04:22:58.399Z,40.80
2018-06-02T04:23:58.374Z,41.00
2018-06-02T04:24:58.383Z,40.60
2018-06-02T04:25:58.375Z,43.70
2018-06-02T04:26:58.388Z,44.30
2018-06-02T04:27:58.438Z,41.90
2018-06-02T04:28:58.421Z,41.90
2018-06-02T04:29:58.439Z,40.70
2018-06-02T04:30:58.481Z,42.40
2018-06-02T04:31:58.516Z,41.10
2018-06-02T04:32:58.522Z,41.50
2018-06-02T04:33:58.544Z,40.00
2018-06-02T04:34:58.511Z,41.30
2018-06-02T04:35:58.553Z,40.80
2018-06-02T04:36:58.570Z,38.20
2018-06-02T04:37:58.574Z,40.80
2018-06-02T04:38:58.620Z,41.90
2018-06-02T04:39:58.590Z,39.00
2018-06-02T04:40:58.629Z,39.40
2018-06-02T04:41:58.620Z,41.70
2018-06-02T04:42:58.667Z,40.50
2018-06-02T04:43:58.649Z,40.60
2018-06-02T04:44:58.706Z,40.10
2018-06-02T04:45:58.671Z,39.90
2018-06-02T04:46:58.694Z,39.90
2018-06-02T04:47:58.716Z,38.80
2018-06-02T04:48:58.760Z,38.90
2018-06-02T04:49:58.739Z,38.10
2018-06-02T04:50:58.755Z,38.80
2018-06-02T04:51:58.760Z,38.60
2018-06-02T04:52:58.769Z,40.80
2018-06-02T04:53:58.848Z,40.10
2018-06-02T04:54:58.839Z,39.90
2018-06-02T04:55:58.830Z,46.30
2018-06-02T04:56:58.847Z,55.50
2018-06-02T04:57:59.498Z,52.10
2018-06-02T04:58:58.893Z,49.80
2018-06-02T04:59:58.876Z,41.60
2018-06-02T05:00:58.887Z,42.30
2018-06-02T05:01:58.927Z,40.70
2018-06-02T05:02:58.953Z,41.50
2018-06-02T05:03:58.984Z,42.80
2018-06-02T05:04:58.949Z,41.90
2018-06-02T05:05:58.969Z,40.10
2018-06-02T05:06:58.970Z,39.60
2018-06-02T05:07:59.021Z,41.80
2018-06-02T05:08:59.039Z,40.80
2018-06-02T05:09:59.279Z,39.40
2018-06-02T05:10:59.042Z,40.30
2018-06-02T05:11:59.076Z,42.10
2018-06-02T05:12:59.083Z,40.30
2018-06-02T05:13:59.103Z,39.60
2018-06-02T05:14:59.125Z,40.40
2018-06-02T05:15:59.159Z,39.00
2018-06-02T05:16:59.193Z,39.70
2018-06-02T05:17:59.142Z,38.40
2018-06-02T05:18:59.204Z,39.40
2018-06-02T05:19:59.873Z,41.30
2018-06-02T05:20:59.211Z,40.10
2018-06-02T05:21:59.262Z,44.10
2018-06-02T05:22:59.223Z,44.80
2018-06-02T05:23:59.357Z,40.20
2018-06-02T05:24:59.593Z,39.40
2018-06-02T05:25:59.261Z,38.30
2018-06-02T05:26:59.330Z,40.50
2018-06-02T05:27:59.619Z,42.10
2018-06-02T05:28:59.335Z,40.90
2018-06-02T05:29:59.416Z,42.40
2018-06-02T05:30:59.356Z,42.10
2018-06-02T05:31:59.405Z,41.50
2018-06-02T05:32:59.365Z,40.40
2018-06-02T05:33:59.382Z,39.40
2018-06-02T05:34:59.450Z,39.40
2018-06-02T05:35:59.413Z,40.20
2018-06-02T05:36:59.437Z,40.40
2018-06-02T05:37:59.436Z,39.90
2018-06-02T05:38:59.452Z,39.80
2018-06-02T05:39:59.505Z,40.00
2018-06-02T05:40:59.496Z,39.40
2018-06-02T05:41:59.504Z,39.00
2018-06-02T05:42:59.536Z,39.20
2018-06-02T05:43:59.577Z,39.30
2018-06-02T05:44:59.540Z,40.50
2018-06-02T05:45:59.585Z,40.90
2018-06-02T05:46:59.593Z,41.70
2018-06-02T05:47:59.605Z,39.40
2018-06-02T05:48:59.640Z,40.70
2018-06-02T05:49:59.619Z,40.20
2018-06-02T05:50:59.635Z,39.90
2018-06-02T05:51:59.649Z,38.20
2018-06-02T05:52:59.679Z,40.20
2018-06-02T05:53:59.755Z,39.10
2018-06-02T05:54:59.719Z,39.80
2018-06-02T05:55:59.716Z,39.40
2018-06-02T05:56:59.740Z,39.20
2018-06-02T05:57:59.750Z,40.50
2018-06-02T05:58:59.759Z,41.10
2018-06-02T05:59:59.898Z,41.50
2018-06-02T06:00:59.785Z,41.20
2018-06-02T06:01:59.797Z,40.50
2018-06-02T06:02:59.855Z,40.90
2018-06-02T06:03:59.863Z,40.10
2018-06-02T06:04:59.878Z,40.20
2018-06-02T06:05:59.951Z,41.30
2018-06-02T06:06:59.870Z,41.80
2018-06-02T06:07:59.898Z,40.40
2018-06-02T06:08:59.944Z,42.40
2018-06-02T06:09:59.966Z,43.00
2018-06-02T06:10:59.933Z,45.80
2018-06-02T06:11:59.992Z,41.30
2018-06-02T06:12:59.951Z,43.50
2018-06-02T06:13:59.994Z,42.20
2018-06-02T06:15:00.235Z,41.80
2018-06-02T06:16:00.008Z,44.00
2018-06-02T06:17:00.050Z,42.60
2018-06-02T06:18:00.076Z,46.70
2018-06-02T06:19:00.050Z,52.00
2018-06-02T06:20:00.079Z,46.20
2018-06-02T06:21:00.097Z,44.00
2018-06-02T06:22:00.139Z,40.60
2018-06-02T06:23:00.124Z,39.00
2018-06-02T06:24:00.192Z,40.30
2018-06-02T06:25:00.132Z,40.60
2018-06-02T06:26:00.152Z,41.30
2018-06-02T06:27:00.223Z,41.20
2018-06-02T06:28:00.246Z,41.20
2018-06-02T06:29:00.209Z,40.60
2018-06-02T06:30:00.218Z,41.30
2018-06-02T06:31:00.257Z,42.00
2018-06-02T06:32:00.237Z,40.50
2018-06-02T06:33:00.480Z,41.80
2018-06-02T06:34:00.306Z,42.50
2018-06-02T06:35:00.298Z,39.90
2018-06-02T06:36:00.290Z,41.30
2018-06-02T06:37:00.316Z,40.60
2018-06-02T06:38:00.326Z,40.50
2018-06-02T06:39:00.396Z,41.00
2018-06-02T06:40:00.364Z,41.00
2018-06-02T06:41:00.373Z,42.10
2018-06-02T06:42:00.402Z,43.60
2018-06-02T06:43:00.409Z,40.40
2018-06-02T06:44:00.460Z,40.80
2018-06-02T06:45:00.434Z,46.00
2018-06-02T06:46:00.470Z,51.80
2018-06-02T06:47:00.480Z,48.50
2018-06-02T06:48:00.504Z,45.60
2018-06-02T06:49:00.549Z,39.80
2018-06-02T06:50:00.528Z,39.50
2018-06-02T06:51:00.535Z,39.90
2018-06-02T06:52:00.528Z,40.80
2018-06-02T06:53:00.548Z,40.10
2018-06-02T06:54:00.594Z,40.20
2018-06-02T06:55:00.603Z,40.10
2018-06-02T06:56:00.621Z,39.10
2018-06-02T06:57:00.616Z,40.10
2018-06-02T06:58:00.615Z,38.40
2018-06-02T06:59:00.638Z,40.50
2018-06-02T07:00:00.690Z,43.40
2018-06-02T07:01:00.715Z,40.70
2018-06-02T07:02:00.722Z,40.10
2018-06-02T07:03:00.719Z,39.40
2018-06-02T07:04:00.729Z,37.30
2018-06-02T07:05:00.774Z,39.00
2018-06-02T07:06:00.748Z,39.40
2018-06-02T07:07:00.779Z,53.10
2018-06-02T07:08:00.842Z,56.00
2018-06-02T07:09:00.839Z,53.00
2018-06-02T07:10:00.871Z,48.00
2018-06-02T07:11:00.831Z,41.00
2018-06-02T07:12:00.898Z,39.90
2018-06-02T07:13:01.126Z,38.90
2018-06-02T07:14:00.928Z,37.60
2018-06-02T07:15:00.908Z,37.50
2018-06-02T07:16:00.924Z,37.10
2018-06-02T07:17:00.919Z,38.90
2018-06-02T07:18:00.930Z,37.60
2018-06-02T07:19:01.052Z,38.20
2018-06-02T07:20:01.034Z,45.80
2018-06-02T07:21:01.099Z,44.70
2018-06-02T07:22:01.890Z,39.40
2018-06-02T07:23:00.994Z,37.80
2018-06-02T07:24:01.039Z,37.00
2018-06-02T07:25:01.161Z,36.80
2018-06-02T07:26:01.051Z,37.10
2018-06-02T07:27:01.080Z,37.40
2018-06-02T07:28:01.116Z,36.90
2018-06-02T07:29:01.103Z,36.00
2018-06-02T07:30:01.134Z,36.40
2018-06-02T07:31:01.138Z,35.00
2018-06-02T07:32:01.142Z,35.10
2018-06-02T07:33:01.193Z,33.80
2018-06-02T07:34:01.246Z,35.40
2018-06-02T07:35:01.207Z,36.50
2018-06-02T07:36:02.925Z,35.60
2018-06-02T07:37:01.235Z,37.20
2018-06-02T07:38:01.226Z,37.10
2018-06-02T07:39:01.285Z,37.10
2018-06-02T07:40:01.312Z,37.40
2018-06-02T07:41:01.304Z,37.70
2018-06-02T07:42:01.321Z,37.10
2018-06-02T07:43:01.328Z,36.60
2018-06-02T07:44:01.340Z,36.10
2018-06-02T07:45:01.403Z,37.30
2018-06-02T07:46:01.400Z,39.10
2018-06-02T07:47:01.377Z,43.10
2018-06-02T07:48:01.415Z,42.30
2018-06-02T07:49:01.409Z,39.80
2018-06-02T11:15:59.442Z,39.10
2018-06-02T11:16:58.858Z,37.50
2018-06-02T11:17:58.851Z,36.70
2018-06-02T11:18:58.885Z,39.20
2018-06-02T11:19:58.908Z,43.30
2018-06-02T11:20:58.882Z,47.40
2018-06-02T11:21:58.914Z,43.50
2018-06-02T11:22:58.904Z,44.10
2018-06-02T11:23:58.932Z,41.90
2018-06-02T11:24:58.978Z,38.50
2018-06-02T11:25:58.951Z,38.00
2018-06-02T11:26:58.962Z,37.00
2018-06-02T11:27:59.003Z,38.10
2018-06-02T11:28:58.999Z,38.60
2018-06-02T11:29:59.041Z,42.40
2018-06-02T11:30:59.043Z,41.80
2018-06-02T11:31:59.106Z,40.00
2018-06-02T11:32:59.064Z,39.70
2018-06-02T11:33:59.096Z,38.70
2018-06-02T11:34:59.099Z,38.40
2018-06-02T11:35:59.155Z,40.60
2018-06-02T11:36:59.110Z,38.40
2018-06-02T11:37:59.223Z,36.60
2018-06-02T11:38:59.154Z,37.80
2018-06-02T11:39:59.159Z,38.10
2018-06-02T11:40:59.243Z,53.60
2018-06-02T11:41:59.208Z,40.20
2018-06-02T11:42:59.221Z,39.30
2018-06-02T11:43:59.249Z,40.30
2018-06-02T11:44:59.234Z,42.40
2018-06-02T11:45:59.291Z,41.30
2018-06-02T11:46:59.354Z,39.70
2018-06-02T11:47:59.296Z,38.20
2018-06-02T11:48:59.301Z,37.00
2018-06-02T11:49:59.345Z,37.00
2018-06-02T11:50:59.456Z,37.40
2018-06-02T11:51:59.393Z,38.40
2018-06-02T11:52:59.379Z,40.30
2018-06-02T11:53:59.399Z,42.90
2018-06-02T11:54:59.405Z,43.50
2018-06-02T11:55:59.410Z,45.20
2018-06-02T11:56:59.466Z,47.70
2018-06-02T11:57:59.467Z,49.00
2018-06-02T11:58:59.476Z,49.20
2018-06-02T11:59:59.477Z,50.00
2018-06-02T12:00:59.527Z,46.60
2018-06-02T12:01:59.573Z,46.50
2018-06-02T12:02:59.538Z,48.00
2018-06-02T12:03:59.630Z,50.80
2018-06-02T12:04:59.571Z,48.90
2018-06-02T12:05:59.582Z,48.30
2018-06-02T12:06:59.676Z,49.60
2018-06-02T12:07:59.640Z,48.30
2018-06-02T12:08:59.648Z,47.00
2018-06-02T12:09:59.656Z,47.00
2018-06-02T12:10:59.671Z,45.70
2018-06-02T12:11:59.722Z,48.10
2018-06-02T12:12:59.696Z,48.70
2018-06-02T12:13:59.699Z,48.70
2018-06-02T12:14:59.729Z,47.90
2018-06-02T12:15:59.736Z,49.40
2018-06-02T12:16:59.819Z,47.60
2018-06-02T12:17:59.822Z,48.40
2018-06-02T12:18:59.798Z,45.30
2018-06-02T12:19:59.803Z,47.60
2018-06-02T12:20:59.821Z,46.40
2018-06-02T12:21:59.838Z,48.80
2018-06-02T12:22:59.918Z,48.30
2018-06-02T12:23:59.874Z,48.10
2018-06-02T12:24:59.900Z,49.80
2018-06-02T12:25:59.915Z,49.20
2018-06-02T12:26:59.931Z,48.80
2018-06-02T12:27:59.985Z,49.10
2018-06-02T12:28:59.964Z,48.70
2018-06-02T12:29:59.997Z,50.40
2018-06-02T12:30:59.975Z,49.50
2018-06-02T12:32:00.026Z,48.90
2018-06-02T12:33:00.019Z,48.80
2018-06-02T12:34:00.046Z,48.40
2018-06-02T12:35:00.152Z,47.50
2018-06-02T12:36:00.061Z,47.10
2018-06-02T12:37:00.136Z,47.40
2018-06-02T12:38:00.083Z,47.50
2018-06-02T12:39:00.123Z,45.80
2018-06-02T12:40:00.129Z,47.00
2018-06-02T12:41:00.137Z,46.60
2018-06-02T12:42:00.181Z,47.90
2018-06-02T12:43:00.171Z,47.60
2018-06-02T12:44:00.191Z,45.30
2018-06-02T12:45:00.216Z,46.60
2018-06-02T12:46:00.223Z,44.70
2018-06-02T12:47:00.275Z,42.90
2018-06-02T12:48:00.268Z,42.20
2018-06-02T12:49:00.262Z,44.30
2018-06-02T12:50:00.295Z,43.50
2018-06-02T12:51:00.295Z,44.30
2018-06-02T12:52:00.304Z,44.60
2018-06-02T12:53:00.360Z,45.50
2018-06-02T12:54:00.340Z,45.10
2018-06-02T12:55:00.344Z,44.80
2018-06-02T12:56:00.388Z,46.50
2018-06-02T12:57:00.379Z,47.20
2018-06-02T12:58:00.451Z,46.30
2018-06-02T12:59:00.478Z,45.40
2018-06-02T13:00:00.429Z,45.80
2018-06-02T13:01:00.484Z,46.10
2018-06-02T13:02:00.476Z,46.20
2018-06-02T13:03:00.476Z,46.60
2018-06-02T13:04:00.501Z,48.00
2018-06-02T13:05:00.505Z,46.60
2018-06-02T13:06:00.659Z,47.00
2018-06-02T13:07:00.568Z,46.70
2018-06-02T13:08:00.562Z,47.20
2018-06-02T13:09:00.587Z,47.10
2018-06-02T13:10:00.611Z,47.20
2018-06-02T13:11:00.624Z,46.20
2018-06-02T13:12:00.669Z,46.70
2018-06-02T13:13:00.717Z,46.00
2018-06-02T13:14:00.658Z,44.60
2018-06-02T13:15:00.716Z,45.30
2018-06-02T13:16:00.683Z,45.90
2018-06-02T13:17:00.757Z,46.90
2018-06-02T13:18:00.765Z,46.60
2018-06-02T13:19:00.802Z,46.00
2018-06-02T13:20:00.759Z,46.80
2018-06-02T13:21:00.771Z,45.40
2018-06-02T13:22:00.784Z,45.30
2018-06-02T13:23:00.827Z,46.00
2018-06-02T13:24:00.834Z,46.50
2018-06-02T13:25:00.816Z,45.90
2018-06-02T13:26:00.848Z,46.40
2018-06-02T13:27:01.669Z,45.20
2018-06-02T13:28:00.895Z,47.10
2018-06-02T13:29:00.939Z,44.80
2018-06-02T13:30:00.902Z,45.30
2018-06-02T13:31:00.922Z,45.50
2018-06-02T13:32:00.987Z,46.00
2018-06-02T13:33:01.000Z,44.50
2018-06-02T13:34:01.046Z,44.70
2018-06-02T13:35:01.146Z,43.80
2018-06-02T13:36:01.032Z,46.00
2018-06-02T13:37:01.034Z,45.50
2018-06-02T13:38:01.110Z,48.10
2018-06-02T13:39:01.073Z,42.70
2018-06-02T13:40:01.086Z,40.70
2018-06-02T13:41:01.133Z,40.10
2018-06-02T13:42:01.083Z,38.70
2018-06-02T13:43:01.224Z,37.90
2018-06-02T13:44:01.129Z,37.90
2018-06-02T13:45:01.149Z,38.20
2018-06-02T13:46:01.158Z,37.30
2018-06-02T13:47:01.273Z,35.30
2018-06-02T13:48:01.194Z,35.90
2018-06-02T13:49:01.258Z,34.60
2018-06-02T13:50:01.259Z,35.00
2018-06-02T13:51:01.583Z,35.90
2018-06-02T13:52:01.492Z,34.60
2018-06-02T13:53:01.308Z,33.50
2018-06-02T13:54:01.317Z,31.50
2018-06-02T13:55:01.290Z,32.00
2018-06-02T13:56:01.348Z,32.30
2018-06-02T13:57:01.320Z,32.00
2018-06-02T13:58:01.469Z,31.80
2018-06-02T13:59:01.366Z,31.50
2018-06-02T14:00:01.458Z,30.90
2018-06-02T14:01:01.405Z,31.70
2018-06-02T14:02:01.459Z,31.50
2018-06-02T14:03:01.474Z,31.20
2018-06-02T14:04:01.451Z,30.70
2018-06-02T14:05:01.485Z,31.60
2018-06-02T14:06:01.467Z,29.50
2018-06-02T14:07:01.510Z,29.30
2018-06-02T14:08:01.542Z,28.20
2018-06-02T14:09:01.573Z,27.30
2018-06-02T14:10:01.680Z,27.90
2018-06-02T14:11:01.564Z,28.50
2018-06-02T14:12:01.567Z,28.00
2018-06-02T14:13:01.604Z,26.80
2018-06-02T14:14:01.600Z,27.70
2018-06-02T14:15:01.615Z,28.30
2018-06-02T14:16:01.663Z,28.40
2018-06-02T14:17:01.695Z,27.50
2018-06-02T14:18:01.653Z,27.60
2018-06-02T14:19:01.666Z,29.10
2018-06-02T14:20:01.714Z,30.10
2018-06-02T14:21:01.717Z,30.50
2018-06-02T14:22:01.784Z,29.60
2018-06-02T14:23:01.816Z,30.10
2018-06-02T14:24:01.935Z,30.60
2018-06-02T14:25:01.777Z,29.00
2018-06-02T14:26:01.808Z,28.30
2018-06-02T14:27:02.795Z,27.10
2018-06-02T14:28:01.847Z,27.30
2018-06-02T14:29:01.929Z,26.40
2018-06-02T14:30:01.903Z,26.40
2018-06-02T14:31:01.874Z,26.10
2018-06-02T14:32:01.892Z,26.00
2018-06-02T14:33:01.919Z,26.10
2018-06-02T14:34:01.914Z,25.60
2018-06-02T14:35:01.988Z,26.70
2018-06-02T14:36:02.002Z,27.20
2018-06-02T14:37:01.968Z,27.30
2018-06-02T14:38:02.021Z,27.00
2018-06-02T14:39:02.036Z,27.10
2018-06-02T14:40:02.054Z,28.80
2018-06-02T14:41:02.061Z,27.10
2018-06-02T14:42:02.069Z,28.10
2018-06-02T14:43:02.097Z,28.60
2018-06-02T14:44:02.101Z,27.10
2018-06-02T14:45:02.081Z,27.50
2018-06-02T14:46:02.109Z,28.20
2018-06-02T14:47:02.200Z,27.90
2018-06-02T14:48:02.142Z,27.40
2018-06-02T14:49:02.170Z,27.40
2018-06-02T14:50:02.221Z,28.60
2018-06-02T14:51:02.187Z,28.60
2018-06-02T14:52:02.276Z,29.50
2018-06-02T14:53:02.390Z,28.20
2018-06-02T14:54:02.250Z,28.00
2018-06-02T14:55:02.266Z,28.50
2018-06-02T14:56:02.275Z,27.70
2018-06-02T14:57:02.346Z,28.10
2018-06-02T14:58:02.336Z,27.70
2018-06-02T14:59:02.331Z,28.80
2018-06-02T15:00:02.347Z,27.60
2018-06-02T15:01:02.358Z,29.00
2018-06-02T15:02:02.505Z,28.90
2018-06-02T15:03:02.424Z,29.70
2018-06-02T15:04:02.391Z,29.90
2018-06-02T15:05:02.402Z,29.80
2018-06-02T15:06:02.727Z,29.10
2018-06-02T15:07:02.467Z,29.60
2018-06-02T15:08:02.465Z,28.70
2018-06-02T15:09:02.473Z,29.90
2018-06-02T15:10:02.514Z,29.10
2018-06-02T15:11:02.535Z,29.90
2018-06-02T15:12:02.530Z,30.00
2018-06-02T15:13:02.608Z,30.00
2018-06-02T15:14:02.555Z,29.80
2018-06-02T15:15:02.615Z,30.20
2018-06-02T15:16:02.586Z,29.30
2018-06-02T15:17:02.596Z,29.70
2018-06-02T15:18:02.649Z,29.40
2018-06-02T15:19:02.687Z,30.90
2018-06-02T15:20:02.688Z,30.30
2018-06-02T15:21:02.692Z,31.60
2018-06-02T15:22:02.943Z,32.20
2018-06-02T15:23:02.708Z,31.60
2018-06-02T15:24:02.721Z,31.20
2018-06-02T15:25:02.751Z,30.10
2018-06-02T15:26:02.755Z,30.10
2018-06-02T15:27:02.808Z,29.80
2018-06-02T15:28:02.811Z,32.50
2018-06-02T15:29:02.800Z,32.90
2018-06-02T15:30:02.815Z,33.30
2018-06-02T15:31:02.848Z,32.90
2018-06-02T15:32:02.890Z,32.50
2018-06-02T15:33:02.908Z,32.10
2018-06-02T15:34:02.880Z,32.70
2018-06-02T15:35:02.903Z,30.50
2018-06-02T15:36:02.992Z,32.10
2018-06-02T15:37:02.948Z,31.20
2018-06-02T15:38:02.953Z,31.50
2018-06-02T15:39:03.002Z,32.70
2018-06-02T15:40:02.998Z,30.30
2018-06-02T15:41:03.016Z,30.90
2018-06-02T15:42:03.001Z,30.20
2018-06-02T15:43:03.053Z,29.90
2018-06-02T15:44:03.036Z,31.10
2018-06-02T15:45:03.813Z,29.90
2018-06-02T15:46:03.109Z,29.60
2018-06-02T15:47:03.104Z,30.50
2018-06-02T15:48:03.116Z,31.30
2018-06-02T15:49:03.120Z,30.90
2018-06-02T15:50:03.118Z,32.20
2018-06-02T15:51:03.208Z,32.00
2018-06-02T15:52:03.199Z,31.10
2018-06-02T15:53:03.194Z,32.70
2018-06-02T15:54:03.195Z,32.40
2018-06-02T15:55:03.539Z,33.60
2018-06-02T15:56:03.266Z,32.40
2018-06-02T15:57:03.268Z,34.30
2018-06-02T15:58:03.328Z,33.80
2018-06-02T15:59:03.289Z,31.80
2018-06-02T16:00:03.293Z,33.00
2018-06-02T16:01:03.347Z,34.50
2018-06-02T16:02:03.368Z,35.40
2018-06-02T16:03:03.358Z,32.40
2018-06-02T16:04:03.365Z,32.20
2018-06-02T16:05:03.411Z,31.00
2018-06-02T16:06:03.390Z,31.60
2018-06-02T16:07:03.441Z,31.90
2018-06-02T16:08:04.200Z,32.00
2018-06-02T16:09:03.463Z,31.90
2018-06-02T16:10:03.525Z,31.30
2018-06-02T16:11:03.476Z,31.20
2018-06-02T16:12:03.479Z,31.00
2018-06-02T16:13:03.527Z,33.40
2018-06-02T16:14:03.515Z,31.50
2018-06-02T16:15:03.557Z,32.00
2018-06-02T16:16:03.600Z,31.50
2018-06-02T16:17:03.596Z,31.60
2018-06-02T16:18:03.585Z,32.40
2018-06-02T16:19:03.586Z,31.80